sensor_id;sensor_type;location;lat;lon;timestamp;P1;durP1;ratioP1;P2;durP2;ratioP2
79363;SDS011;68832;53.112;17.980;2024-02-23T00:02:06;11.60;;;7.70;;
79363;SDS011;68832;53.112;17.980;2024-02-23T00:04:32;12.90;;;5.90;;
79363;SDS011;68832;53.112;17.980;2024-02-23T00:07:00;12.20;;;8.80;;
79363;SDS011;68832;53.112;17.980;2024-02-23T00:09:30;8.90;;;6.60;;
79363;SDS011;68832;53.112;17.980;2024-02-23T00:11:59;9.80;;;6.70;;
79363;SDS011;68832;53.112;17.980;2024-02-23T00:14:26;10.30;;;7.00;;
79363;SDS011;68832;53.112;17.980;2024-02-23T00:16:52;12.20;;;9.30;;
79363;SDS011;68832;53.112;17.980;2024-02-23T00:19:22;11.70;;;7.60;;
79363;SDS011;68832;53.112;17.980;2024-02-23T00:21:54;9.80;;;6.00;;
79363;SDS011;68832;53.112;17.980;2024-02-23T00:24:21;11.20;;;7.80;;
79363;SDS011;68832;53.112;17.980;2024-02-23T00:26:49;10.40;;;7.60;;
79363;SDS011;68832;53.112;17.980;2024-02-23T00:29:19;12.00;;;8.50;;
79363;SDS011;68832;53.112;17.980;2024-02-23T00:31:49;12.40;;;8.00;;
79363;SDS011;68832;53.112;17.980;2024-02-23T00:34:17;12.80;;;6.90;;
79363;SDS011;68832;53.112;17.980;2024-02-23T00:36:44;9.50;;;6.10;;
79363;SDS011;68832;53.112;17.980;2024-02-23T00:39:12;8.40;;;6.40;;
79363;SDS011;68832;53.112;17.980;2024-02-23T00:41:40;8.20;;;5.70;;
79363;SDS011;68832;53.112;17.980;2024-02-23T00:44:09;13.10;;;8.70;;
79363;SDS011;68832;53.112;17.980;2024-02-23T00:46:41;12.20;;;7.10;;
79363;SDS011;68832;53.112;17.980;2024-02-23T00:49:07;11.50;;;7.20;;
79363;SDS011;68832;53.112;17.980;2024-02-23T00:51:35;7.20;;;5.50;;
79363;SDS011;68832;53.112;17.980;2024-02-23T00:54:10;11.40;;;7.80;;
79363;SDS011;68832;53.112;17.980;2024-02-23T00:57:21;11.50;;;7.60;;
79363;SDS011;68832;53.112;17.980;2024-02-23T00:59:56;12.00;;;7.10;;
79363;SDS011;68832;53.112;17.980;2024-02-23T01:02:23;11.20;;;6.50;;
79363;SDS011;68832;53.112;17.980;2024-02-23T01:04:50;9.80;;;6.20;;
79363;SDS011;68832;53.112;17.980;2024-02-23T01:07:17;9.30;;;6.60;;
79363;SDS011;68832;53.112;17.980;2024-02-23T01:09:43;11.80;;;7.70;;
79363;SDS011;68832;53.112;17.980;2024-02-23T01:12:10;11.20;;;6.90;;
79363;SDS011;68832;53.112;17.980;2024-02-23T01:14:36;10.60;;;7.60;;
79363;SDS011;68832;53.112;17.980;2024-02-23T01:17:03;10.50;;;6.70;;
79363;SDS011;68832;53.112;17.980;2024-02-23T01:19:30;8.30;;;5.90;;
79363;SDS011;68832;53.112;17.980;2024-02-23T01:21:58;12.80;;;7.60;;
79363;SDS011;68832;53.112;17.980;2024-02-23T01:24:27;9.30;;;6.20;;
79363;SDS011;68832;53.112;17.980;2024-02-23T01:27:02;8.30;;;5.90;;
79363;SDS011;68832;53.112;17.980;2024-02-23T01:29:29;11.60;;;6.00;;
79363;SDS011;68832;53.112;17.980;2024-02-23T01:31:56;7.90;;;4.50;;
79363;SDS011;68832;53.112;17.980;2024-02-23T01:34:22;9.90;;;7.40;;
79363;SDS011;68832;53.112;17.980;2024-02-23T01:36:49;13.40;;;8.40;;
79363;SDS011;68832;53.112;17.980;2024-02-23T01:39:16;6.60;;;4.80;;
79363;SDS011;68832;53.112;17.980;2024-02-23T01:41:42;11.30;;;6.20;;
79363;SDS011;68832;53.112;17.980;2024-02-23T01:44:11;9.20;;;6.60;;
79363;SDS011;68832;53.112;17.980;2024-02-23T01:46:38;11.60;;;7.00;;
79363;SDS011;68832;53.112;17.980;2024-02-23T01:49:05;12.00;;;7.80;;
79363;SDS011;68832;53.112;17.980;2024-02-23T01:51:33;10.20;;;6.40;;
79363;SDS011;68832;53.112;17.980;2024-02-23T01:54:01;9.70;;;6.40;;
79363;SDS011;68832;53.112;17.980;2024-02-23T01:56:28;8.90;;;6.30;;
79363;SDS011;68832;53.112;17.980;2024-02-23T01:58:55;6.80;;;5.30;;
79363;SDS011;68832;53.112;17.980;2024-02-23T02:01:22;8.60;;;5.40;;
79363;SDS011;68832;53.112;17.980;2024-02-23T02:03:49;9.90;;;6.00;;
79363;SDS011;68832;53.112;17.980;2024-02-23T02:06:16;11.20;;;7.50;;
79363;SDS011;68832;53.112;17.980;2024-02-23T02:08:45;8.30;;;6.80;;
79363;SDS011;68832;53.112;17.980;2024-02-23T02:11:46;9.10;;;6.40;;
79363;SDS011;68832;53.112;17.980;2024-02-23T02:14:17;7.40;;;4.20;;
79363;SDS011;68832;53.112;17.980;2024-02-23T02:16:45;10.80;;;6.10;;
79363;SDS011;68832;53.112;17.980;2024-02-23T02:19:13;9.70;;;6.20;;
79363;SDS011;68832;53.112;17.980;2024-02-23T02:21:41;9.40;;;5.50;;
79363;SDS011;68832;53.112;17.980;2024-02-23T02:24:12;9.50;;;6.40;;
79363;SDS011;68832;53.112;17.980;2024-02-23T02:26:42;5.90;;;5.00;;
79363;SDS011;68832;53.112;17.980;2024-02-23T02:29:13;10.80;;;6.70;;
79363;SDS011;68832;53.112;17.980;2024-02-23T02:31:40;8.30;;;5.60;;
79363;SDS011;68832;53.112;17.980;2024-02-23T02:34:06;7.10;;;3.80;;
79363;SDS011;68832;53.112;17.980;2024-02-23T02:36:33;9.00;;;6.00;;
79363;SDS011;68832;53.112;17.980;2024-02-23T02:39:00;8.10;;;5.80;;
79363;SDS011;68832;53.112;17.980;2024-02-23T02:41:28;6.50;;;5.00;;
79363;SDS011;68832;53.112;17.980;2024-02-23T02:43:57;11.60;;;8.70;;
79363;SDS011;68832;53.112;17.980;2024-02-23T02:46:23;9.80;;;6.80;;
79363;SDS011;68832;53.112;17.980;2024-02-23T02:48:52;6.80;;;4.30;;
79363;SDS011;68832;53.112;17.980;2024-02-23T02:51:23;10.90;;;6.50;;
79363;SDS011;68832;53.112;17.980;2024-02-23T02:53:49;10.90;;;7.10;;
79363;SDS011;68832;53.112;17.980;2024-02-23T02:58:46;12.00;;;6.80;;
79363;SDS011;68832;53.112;17.980;2024-02-23T03:01:14;8.50;;;7.00;;
79363;SDS011;68832;53.112;17.980;2024-02-23T03:03:41;10.20;;;7.10;;
79363;SDS011;68832;53.112;17.980;2024-02-23T03:06:09;12.10;;;7.50;;
79363;SDS011;68832;53.112;17.980;2024-02-23T03:08:36;13.40;;;8.10;;
79363;SDS011;68832;53.112;17.980;2024-02-23T03:11:03;9.40;;;6.10;;
79363;SDS011;68832;53.112;17.980;2024-02-23T03:13:31;8.40;;;5.80;;
79363;SDS011;68832;53.112;17.980;2024-02-23T03:16:03;8.80;;;6.10;;
79363;SDS011;68832;53.112;17.980;2024-02-23T03:18:32;7.70;;;4.90;;
79363;SDS011;68832;53.112;17.980;2024-02-23T03:21:10;8.40;;;5.50;;
79363;SDS011;68832;53.112;17.980;2024-02-23T03:23:36;8.10;;;5.30;;
79363;SDS011;68832;53.112;17.980;2024-02-23T03:26:03;7.50;;;5.00;;
79363;SDS011;68832;53.112;17.980;2024-02-23T03:28:30;7.40;;;4.60;;
79363;SDS011;68832;53.112;17.980;2024-02-23T03:30:56;7.60;;;5.20;;
79363;SDS011;68832;53.112;17.980;2024-02-23T03:33:23;8.40;;;5.00;;
79363;SDS011;68832;53.112;17.980;2024-02-23T03:35:50;6.90;;;4.70;;
79363;SDS011;68832;53.112;17.980;2024-02-23T03:38:16;8.10;;;5.40;;
79363;SDS011;68832;53.112;17.980;2024-02-23T03:40:43;6.20;;;4.00;;
79363;SDS011;68832;53.112;17.980;2024-02-23T03:43:10;7.20;;;4.40;;
79363;SDS011;68832;53.112;17.980;2024-02-23T03:45:36;5.90;;;4.60;;
79363;SDS011;68832;53.112;17.980;2024-02-23T03:48:06;5.90;;;4.60;;
79363;SDS011;68832;53.112;17.980;2024-02-23T03:50:33;7.60;;;5.30;;
79363;SDS011;68832;53.112;17.980;2024-02-23T03:52:59;6.60;;;5.00;;
79363;SDS011;68832;53.112;17.980;2024-02-23T03:55:28;5.90;;;4.30;;
79363;SDS011;68832;53.112;17.980;2024-02-23T03:57:55;6.80;;;6.10;;
79363;SDS011;68832;53.112;17.980;2024-02-23T04:00:23;6.70;;;4.20;;
79363;SDS011;68832;53.112;17.980;2024-02-23T04:02:53;5.60;;;4.00;;
79363;SDS011;68832;53.112;17.980;2024-02-23T04:05:20;7.10;;;4.70;;
79363;SDS011;68832;53.112;17.980;2024-02-23T04:07:46;5.50;;;4.70;;
79363;SDS011;68832;53.112;17.980;2024-02-23T04:10:13;6.10;;;4.50;;
79363;SDS011;68832;53.112;17.980;2024-02-23T04:12:42;5.10;;;3.60;;
79363;SDS011;68832;53.112;17.980;2024-02-23T04:15:10;5.60;;;3.60;;
79363;SDS011;68832;53.112;17.980;2024-02-23T04:17:37;5.60;;;2.80;;
79363;SDS011;68832;53.112;17.980;2024-02-23T04:20:07;4.60;;;3.60;;
79363;SDS011;68832;53.112;17.980;2024-02-23T04:22:36;4.70;;;3.00;;
79363;SDS011;68832;53.112;17.980;2024-02-23T04:25:03;3.70;;;2.70;;
79363;SDS011;68832;53.112;17.980;2024-02-23T04:27:31;4.00;;;2.70;;
79363;SDS011;68832;53.112;17.980;2024-02-23T04:29:58;4.50;;;3.60;;
79363;SDS011;68832;53.112;17.980;2024-02-23T04:32:26;5.50;;;4.00;;
79363;SDS011;68832;53.112;17.980;2024-02-23T04:34:54;4.80;;;3.10;;
79363;SDS011;68832;53.112;17.980;2024-02-23T04:37:21;4.10;;;3.00;;
79363;SDS011;68832;53.112;17.980;2024-02-23T04:39:48;4.20;;;2.80;;
79363;SDS011;68832;53.112;17.980;2024-02-23T04:42:15;5.70;;;3.10;;
79363;SDS011;68832;53.112;17.980;2024-02-23T04:44:42;4.90;;;3.00;;
79363;SDS011;68832;53.112;17.980;2024-02-23T04:47:10;3.20;;;2.20;;
79363;SDS011;68832;53.112;17.980;2024-02-23T04:49:39;4.50;;;2.80;;
79363;SDS011;68832;53.112;17.980;2024-02-23T04:52:05;4.20;;;2.60;;
79363;SDS011;68832;53.112;17.980;2024-02-23T04:54:38;3.40;;;2.90;;
79363;SDS011;68832;53.112;17.980;2024-02-23T04:57:06;3.50;;;2.70;;
79363;SDS011;68832;53.112;17.980;2024-02-23T04:59:32;3.20;;;2.40;;
79363;SDS011;68832;53.112;17.980;2024-02-23T05:01:59;2.90;;;1.90;;
79363;SDS011;68832;53.112;17.980;2024-02-23T05:04:26;4.10;;;2.60;;
79363;SDS011;68832;53.112;17.980;2024-02-23T05:06:55;2.90;;;2.10;;
79363;SDS011;68832;53.112;17.980;2024-02-23T05:09:22;3.70;;;2.40;;
79363;SDS011;68832;53.112;17.980;2024-02-23T05:11:48;4.10;;;2.90;;
79363;SDS011;68832;53.112;17.980;2024-02-23T05:14:15;5.60;;;1.30;;
79363;SDS011;68832;53.112;17.980;2024-02-23T05:16:43;3.70;;;2.90;;
79363;SDS011;68832;53.112;17.980;2024-02-23T05:19:10;3.20;;;2.50;;
79363;SDS011;68832;53.112;17.980;2024-02-23T05:21:37;3.10;;;2.20;;
79363;SDS011;68832;53.112;17.980;2024-02-23T05:24:08;3.00;;;1.70;;
79363;SDS011;68832;53.112;17.980;2024-02-23T05:26:34;2.90;;;2.10;;
79363;SDS011;68832;53.112;17.980;2024-02-23T05:29:03;2.80;;;2.00;;
79363;SDS011;68832;53.112;17.980;2024-02-23T05:31:51;2.50;;;1.90;;
79363;SDS011;68832;53.112;17.980;2024-02-23T05:34:19;2.40;;;1.90;;
79363;SDS011;68832;53.112;17.980;2024-02-23T05:36:46;3.10;;;2.60;;
79363;SDS011;68832;53.112;17.980;2024-02-23T05:39:14;2.90;;;1.80;;
79363;SDS011;68832;53.112;17.980;2024-02-23T05:41:43;3.10;;;2.80;;
79363;SDS011;68832;53.112;17.980;2024-02-23T05:44:10;3.30;;;2.30;;
79363;SDS011;68832;53.112;17.980;2024-02-23T05:46:37;2.80;;;2.10;;
79363;SDS011;68832;53.112;17.980;2024-02-23T05:49:04;5.30;;;3.50;;
79363;SDS011;68832;53.112;17.980;2024-02-23T05:51:32;3.90;;;2.60;;
79363;SDS011;68832;53.112;17.980;2024-02-23T05:54:01;2.60;;;2.30;;
79363;SDS011;68832;53.112;17.980;2024-02-23T05:56:31;3.80;;;3.50;;
79363;SDS011;68832;53.112;17.980;2024-02-23T05:59:20;3.90;;;2.80;;
79363;SDS011;68832;53.112;17.980;2024-02-23T06:01:47;2.90;;;2.30;;
79363;SDS011;68832;53.112;17.980;2024-02-23T06:04:14;3.30;;;2.60;;
79363;SDS011;68832;53.112;17.980;2024-02-23T06:06:41;2.70;;;2.40;;
79363;SDS011;68832;53.112;17.980;2024-02-23T06:09:09;2.90;;;1.90;;
79363;SDS011;68832;53.112;17.980;2024-02-23T06:11:36;2.40;;;2.20;;
79363;SDS011;68832;53.112;17.980;2024-02-23T06:14:06;3.90;;;2.10;;
79363;SDS011;68832;53.112;17.980;2024-02-23T06:16:35;6.20;;;3.90;;
79363;SDS011;68832;53.112;17.980;2024-02-23T06:19:02;2.50;;;1.60;;
79363;SDS011;68832;53.112;17.980;2024-02-23T06:21:31;2.70;;;2.40;;
79363;SDS011;68832;53.112;17.980;2024-02-23T06:24:06;3.90;;;1.60;;
79363;SDS011;68832;53.112;17.980;2024-02-23T06:26:34;2.40;;;1.80;;
79363;SDS011;68832;53.112;17.980;2024-02-23T06:29:01;3.50;;;2.00;;
79363;SDS011;68832;53.112;17.980;2024-02-23T06:31:31;3.00;;;2.10;;
79363;SDS011;68832;53.112;17.980;2024-02-23T06:34:02;2.50;;;1.80;;
79363;SDS011;68832;53.112;17.980;2024-02-23T06:36:28;2.50;;;2.00;;
79363;SDS011;68832;53.112;17.980;2024-02-23T06:38:55;1.90;;;1.20;;
79363;SDS011;68832;53.112;17.980;2024-02-23T06:41:23;2.20;;;1.40;;
79363;SDS011;68832;53.112;17.980;2024-02-23T06:43:50;2.10;;;1.70;;
79363;SDS011;68832;53.112;17.980;2024-02-23T06:46:18;2.40;;;1.60;;
79363;SDS011;68832;53.112;17.980;2024-02-23T06:48:48;5.40;;;1.90;;
79363;SDS011;68832;53.112;17.980;2024-02-23T06:51:15;1.90;;;1.20;;
79363;SDS011;68832;53.112;17.980;2024-02-23T06:53:42;4.70;;;4.30;;
79363;SDS011;68832;53.112;17.980;2024-02-23T06:56:10;4.00;;;2.50;;
79363;SDS011;68832;53.112;17.980;2024-02-23T06:58:38;4.70;;;4.30;;
79363;SDS011;68832;53.112;17.980;2024-02-23T07:01:06;3.40;;;1.50;;
79363;SDS011;68832;53.112;17.980;2024-02-23T07:03:34;5.10;;;2.00;;
79363;SDS011;68832;53.112;17.980;2024-02-23T07:06:04;3.00;;;1.80;;
79363;SDS011;68832;53.112;17.980;2024-02-23T07:08:31;3.60;;;1.80;;
79363;SDS011;68832;53.112;17.980;2024-02-23T07:11:00;5.50;;;1.70;;
79363;SDS011;68832;53.112;17.980;2024-02-23T07:13:30;3.00;;;2.00;;
79363;SDS011;68832;53.112;17.980;2024-02-23T07:15:57;3.10;;;2.20;;
79363;SDS011;68832;53.112;17.980;2024-02-23T07:18:40;3.20;;;1.40;;
79363;SDS011;68832;53.112;17.980;2024-02-23T07:21:07;2.30;;;1.60;;
79363;SDS011;68832;53.112;17.980;2024-02-23T07:23:34;6.10;;;1.00;;
79363;SDS011;68832;53.112;17.980;2024-02-23T07:26:01;2.60;;;1.80;;
79363;SDS011;68832;53.112;17.980;2024-02-23T07:28:28;1.70;;;0.70;;
79363;SDS011;68832;53.112;17.980;2024-02-23T07:30:55;4.70;;;1.70;;
79363;SDS011;68832;53.112;17.980;2024-02-23T07:33:23;2.20;;;1.30;;
79363;SDS011;68832;53.112;17.980;2024-02-23T07:35:50;2.30;;;1.20;;
79363;SDS011;68832;53.112;17.980;2024-02-23T07:38:18;2.50;;;1.50;;
79363;SDS011;68832;53.112;17.980;2024-02-23T07:40:45;1.70;;;0.80;;
79363;SDS011;68832;53.112;17.980;2024-02-23T07:43:12;2.90;;;0.80;;
79363;SDS011;68832;53.112;17.980;2024-02-23T07:48:10;7.50;;;3.40;;
79363;SDS011;68832;53.112;17.980;2024-02-23T07:50:37;2.60;;;2.10;;
79363;SDS011;68832;53.112;17.980;2024-02-23T07:53:05;2.00;;;1.70;;
79363;SDS011;68832;53.112;17.980;2024-02-23T07:55:32;2.20;;;0.90;;
79363;SDS011;68832;53.112;17.980;2024-02-23T07:57:59;6.00;;;2.90;;
79363;SDS011;68832;53.112;17.980;2024-02-23T08:00:28;4.50;;;2.90;;
79363;SDS011;68832;53.112;17.980;2024-02-23T08:02:54;3.50;;;2.00;;
79363;SDS011;68832;53.112;17.980;2024-02-23T08:05:26;4.10;;;2.40;;
79363;SDS011;68832;53.112;17.980;2024-02-23T08:07:53;18.10;;;8.00;;
79363;SDS011;68832;53.112;17.980;2024-02-23T08:10:20;8.30;;;2.60;;
79363;SDS011;68832;53.112;17.980;2024-02-23T08:12:48;9.50;;;5.60;;
79363;SDS011;68832;53.112;17.980;2024-02-23T08:15:15;3.50;;;2.50;;
79363;SDS011;68832;53.112;17.980;2024-02-23T08:17:44;4.60;;;1.70;;
79363;SDS011;68832;53.112;17.980;2024-02-23T08:20:10;3.90;;;1.40;;
79363;SDS011;68832;53.112;17.980;2024-02-23T08:22:39;6.90;;;3.60;;
79363;SDS011;68832;53.112;17.980;2024-02-23T08:25:08;4.70;;;2.70;;
79363;SDS011;68832;53.112;17.980;2024-02-23T08:30:02;3.10;;;1.30;;
79363;SDS011;68832;53.112;17.980;2024-02-23T08:34:57;3.00;;;2.10;;
79363;SDS011;68832;53.112;17.980;2024-02-23T08:37:29;1.80;;;0.70;;
79363;SDS011;68832;53.112;17.980;2024-02-23T08:39:56;2.40;;;1.30;;
79363;SDS011;68832;53.112;17.980;2024-02-23T08:42:23;3.80;;;1.00;;
79363;SDS011;68832;53.112;17.980;2024-02-23T08:44:50;5.50;;;2.50;;
79363;SDS011;68832;53.112;17.980;2024-02-23T08:47:16;1.90;;;1.10;;
79363;SDS011;68832;53.112;17.980;2024-02-23T08:49:43;3.30;;;1.10;;
79363;SDS011;68832;53.112;17.980;2024-02-23T08:52:10;5.10;;;2.00;;
79363;SDS011;68832;53.112;17.980;2024-02-23T08:54:37;3.80;;;1.60;;
79363;SDS011;68832;53.112;17.980;2024-02-23T08:57:05;1.50;;;0.80;;
79363;SDS011;68832;53.112;17.980;2024-02-23T08:59:32;2.30;;;0.80;;
79363;SDS011;68832;53.112;17.980;2024-02-23T09:01:59;2.40;;;1.40;;
79363;SDS011;68832;53.112;17.980;2024-02-23T09:04:26;2.90;;;1.70;;
79363;SDS011;68832;53.112;17.980;2024-02-23T09:06:52;3.60;;;1.50;;
79363;SDS011;68832;53.112;17.980;2024-02-23T09:09:20;3.70;;;1.90;;
79363;SDS011;68832;53.112;17.980;2024-02-23T09:11:51;3.70;;;1.30;;
79363;SDS011;68832;53.112;17.980;2024-02-23T09:14:18;6.30;;;2.80;;
79363;SDS011;68832;53.112;17.980;2024-02-23T09:16:46;3.80;;;2.00;;
79363;SDS011;68832;53.112;17.980;2024-02-23T09:19:15;4.50;;;2.40;;
79363;SDS011;68832;53.112;17.980;2024-02-23T09:21:41;6.10;;;3.30;;
79363;SDS011;68832;53.112;17.980;2024-02-23T09:24:09;3.30;;;1.90;;
79363;SDS011;68832;53.112;17.980;2024-02-23T09:26:36;6.80;;;3.20;;
79363;SDS011;68832;53.112;17.980;2024-02-23T09:29:03;6.20;;;2.10;;
79363;SDS011;68832;53.112;17.980;2024-02-23T09:31:30;4.30;;;0.80;;
79363;SDS011;68832;53.112;17.980;2024-02-23T09:34:00;3.60;;;1.40;;
79363;SDS011;68832;53.112;17.980;2024-02-23T09:36:31;2.10;;;1.30;;
79363;SDS011;68832;53.112;17.980;2024-02-23T09:39:01;3.90;;;3.20;;
79363;SDS011;68832;53.112;17.980;2024-02-23T09:41:31;5.80;;;1.40;;
79363;SDS011;68832;53.112;17.980;2024-02-23T09:44:00;4.00;;;2.30;;
79363;SDS011;68832;53.112;17.980;2024-02-23T09:46:29;3.10;;;1.10;;
79363;SDS011;68832;53.112;17.980;2024-02-23T09:48:59;3.40;;;1.60;;
79363;SDS011;68832;53.112;17.980;2024-02-23T09:51:25;2.80;;;0.80;;
79363;SDS011;68832;53.112;17.980;2024-02-23T09:53:55;2.80;;;1.80;;
79363;SDS011;68832;53.112;17.980;2024-02-23T09:56:25;3.40;;;1.20;;
79363;SDS011;68832;53.112;17.980;2024-02-23T09:58:59;4.80;;;1.40;;
79363;SDS011;68832;53.112;17.980;2024-02-23T10:01:28;2.70;;;1.30;;
79363;SDS011;68832;53.112;17.980;2024-02-23T10:03:57;2.40;;;1.00;;
79363;SDS011;68832;53.112;17.980;2024-02-23T10:06:27;2.10;;;1.30;;
79363;SDS011;68832;53.112;17.980;2024-02-23T10:08:54;2.80;;;1.20;;
79363;SDS011;68832;53.112;17.980;2024-02-23T10:11:23;1.50;;;1.00;;
79363;SDS011;68832;53.112;17.980;2024-02-23T10:13:52;2.60;;;1.00;;
79363;SDS011;68832;53.112;17.980;2024-02-23T10:16:19;2.20;;;1.60;;
79363;SDS011;68832;53.112;17.980;2024-02-23T10:18:51;4.30;;;1.30;;
79363;SDS011;68832;53.112;17.980;2024-02-23T10:21:21;1.50;;;0.90;;
79363;SDS011;68832;53.112;17.980;2024-02-23T10:23:48;5.40;;;1.70;;
79363;SDS011;68832;53.112;17.980;2024-02-23T10:26:19;5.00;;;1.30;;
79363;SDS011;68832;53.112;17.980;2024-02-23T10:28:50;2.30;;;0.80;;
79363;SDS011;68832;53.112;17.980;2024-02-23T10:31:17;2.10;;;1.90;;
79363;SDS011;68832;53.112;17.980;2024-02-23T10:33:47;2.90;;;0.90;;
79363;SDS011;68832;53.112;17.980;2024-02-23T10:36:15;1.40;;;0.90;;
79363;SDS011;68832;53.112;17.980;2024-02-23T10:38:45;2.50;;;0.70;;
79363;SDS011;68832;53.112;17.980;2024-02-23T10:41:16;1.80;;;1.20;;
79363;SDS011;68832;53.112;17.980;2024-02-23T10:43:46;1.00;;;0.70;;
79363;SDS011;68832;53.112;17.980;2024-02-23T10:46:14;1.90;;;0.60;;
79363;SDS011;68832;53.112;17.980;2024-02-23T10:48:45;8.60;;;1.50;;
79363;SDS011;68832;53.112;17.980;2024-02-23T10:51:14;5.60;;;0.60;;
79363;SDS011;68832;53.112;17.980;2024-02-23T10:53:41;3.70;;;0.70;;
79363;SDS011;68832;53.112;17.980;2024-02-23T10:56:10;1.90;;;1.30;;
79363;SDS011;68832;53.112;17.980;2024-02-23T10:58:41;3.90;;;1.00;;
79363;SDS011;68832;53.112;17.980;2024-02-23T11:01:09;1.50;;;0.80;;
79363;SDS011;68832;53.112;17.980;2024-02-23T11:03:37;4.30;;;1.40;;
79363;SDS011;68832;53.112;17.980;2024-02-23T11:06:08;6.40;;;2.60;;
79363;SDS011;68832;53.112;17.980;2024-02-23T11:08:35;5.10;;;1.40;;
79363;SDS011;68832;53.112;17.980;2024-02-23T11:11:08;2.50;;;1.00;;
79363;SDS011;68832;53.112;17.980;2024-02-23T11:13:36;3.10;;;1.80;;
79363;SDS011;68832;53.112;17.980;2024-02-23T11:16:04;4.10;;;2.40;;
79363;SDS011;68832;53.112;17.980;2024-02-23T11:18:36;4.60;;;3.10;;
79363;SDS011;68832;53.112;17.980;2024-02-23T11:21:05;2.90;;;0.90;;
79363;SDS011;68832;53.112;17.980;2024-02-23T11:23:42;4.30;;;1.70;;
79363;SDS011;68832;53.112;17.980;2024-02-23T11:26:09;2.60;;;1.40;;
79363;SDS011;68832;53.112;17.980;2024-02-23T11:31:19;2.00;;;0.90;;
79363;SDS011;68832;53.112;17.980;2024-02-23T11:33:55;1.70;;;0.90;;
79363;SDS011;68832;53.112;17.980;2024-02-23T11:38:59;6.10;;;2.10;;
79363;SDS011;68832;53.112;17.980;2024-02-23T11:41:27;1.90;;;1.20;;
79363;SDS011;68832;53.112;17.980;2024-02-23T11:43:57;7.60;;;4.50;;
79363;SDS011;68832;53.112;17.980;2024-02-23T11:46:26;3.00;;;1.20;;
79363;SDS011;68832;53.112;17.980;2024-02-23T11:48:53;2.40;;;0.80;;
79363;SDS011;68832;53.112;17.980;2024-02-23T11:51:21;4.10;;;1.40;;
79363;SDS011;68832;53.112;17.980;2024-02-23T11:53:49;2.40;;;1.20;;
79363;SDS011;68832;53.112;17.980;2024-02-23T11:56:16;6.40;;;0.70;;
79363;SDS011;68832;53.112;17.980;2024-02-23T11:58:45;5.40;;;2.00;;
79363;SDS011;68832;53.112;17.980;2024-02-23T12:03:39;2.00;;;0.90;;
79363;SDS011;68832;53.112;17.980;2024-02-23T12:06:07;2.50;;;0.90;;
79363;SDS011;68832;53.112;17.980;2024-02-23T12:08:34;3.90;;;0.90;;
79363;SDS011;68832;53.112;17.980;2024-02-23T12:11:04;4.70;;;1.10;;
79363;SDS011;68832;53.112;17.980;2024-02-23T12:13:32;5.80;;;2.40;;
79363;SDS011;68832;53.112;17.980;2024-02-23T12:16:00;4.80;;;0.70;;
79363;SDS011;68832;53.112;17.980;2024-02-23T12:24:45;3.40;;;1.30;;
79363;SDS011;68832;53.112;17.980;2024-02-23T12:27:15;2.60;;;0.80;;
79363;SDS011;68832;53.112;17.980;2024-02-23T12:29:51;3.90;;;1.50;;
79363;SDS011;68832;53.112;17.980;2024-02-23T12:32:23;4.20;;;0.90;;
79363;SDS011;68832;53.112;17.980;2024-02-23T12:34:50;3.60;;;1.50;;
79363;SDS011;68832;53.112;17.980;2024-02-23T12:37:17;4.60;;;1.40;;
79363;SDS011;68832;53.112;17.980;2024-02-23T12:39:44;5.40;;;3.60;;
79363;SDS011;68832;53.112;17.980;2024-02-23T12:42:11;3.20;;;1.20;;
79363;SDS011;68832;53.112;17.980;2024-02-23T12:44:38;3.10;;;1.60;;
79363;SDS011;68832;53.112;17.980;2024-02-23T12:47:05;3.30;;;0.90;;
79363;SDS011;68832;53.112;17.980;2024-02-23T12:49:33;2.10;;;1.30;;
79363;SDS011;68832;53.112;17.980;2024-02-23T12:52:01;2.40;;;1.20;;
79363;SDS011;68832;53.112;17.980;2024-02-23T12:54:29;2.50;;;1.40;;
79363;SDS011;68832;53.112;17.980;2024-02-23T12:56:56;2.00;;;0.80;;
79363;SDS011;68832;53.112;17.980;2024-02-23T12:59:23;3.00;;;1.00;;
79363;SDS011;68832;53.112;17.980;2024-02-23T13:01:50;2.00;;;0.90;;
79363;SDS011;68832;53.112;17.980;2024-02-23T13:04:17;2.40;;;1.50;;
79363;SDS011;68832;53.112;17.980;2024-02-23T13:06:43;3.20;;;1.20;;
79363;SDS011;68832;53.112;17.980;2024-02-23T13:09:10;1.50;;;1.30;;
79363;SDS011;68832;53.112;17.980;2024-02-23T13:11:38;1.50;;;0.80;;
79363;SDS011;68832;53.112;17.980;2024-02-23T13:14:06;1.00;;;0.60;;
79363;SDS011;68832;53.112;17.980;2024-02-23T13:16:33;2.10;;;0.60;;
79363;SDS011;68832;53.112;17.980;2024-02-23T13:18:59;2.70;;;1.50;;
79363;SDS011;68832;53.112;17.980;2024-02-23T13:21:26;4.80;;;0.70;;
79363;SDS011;68832;53.112;17.980;2024-02-23T13:23:53;3.20;;;1.00;;
79363;SDS011;68832;53.112;17.980;2024-02-23T13:26:20;3.50;;;0.60;;
79363;SDS011;68832;53.112;17.980;2024-02-23T13:28:48;6.00;;;3.30;;
79363;SDS011;68832;53.112;17.980;2024-02-23T13:31:14;1.40;;;1.00;;
79363;SDS011;68832;53.112;17.980;2024-02-23T13:33:41;1.80;;;1.00;;
79363;SDS011;68832;53.112;17.980;2024-02-23T13:36:11;4.70;;;1.70;;
79363;SDS011;68832;53.112;17.980;2024-02-23T13:38:40;2.90;;;1.00;;
79363;SDS011;68832;53.112;17.980;2024-02-23T13:41:11;1.80;;;1.20;;
79363;SDS011;68832;53.112;17.980;2024-02-23T13:43:38;4.70;;;1.00;;
79363;SDS011;68832;53.112;17.980;2024-02-23T13:46:05;2.30;;;0.70;;
79363;SDS011;68832;53.112;17.980;2024-02-23T13:48:32;2.00;;;1.30;;
79363;SDS011;68832;53.112;17.980;2024-02-23T13:50:59;4.00;;;0.80;;
79363;SDS011;68832;53.112;17.980;2024-02-23T13:53:29;3.90;;;1.30;;
79363;SDS011;68832;53.112;17.980;2024-02-23T13:55:57;2.90;;;0.70;;
79363;SDS011;68832;53.112;17.980;2024-02-23T13:58:23;4.80;;;1.30;;
79363;SDS011;68832;53.112;17.980;2024-02-23T14:00:50;5.00;;;1.90;;
79363;SDS011;68832;53.112;17.980;2024-02-23T14:03:17;6.50;;;1.90;;
79363;SDS011;68832;53.112;17.980;2024-02-23T14:05:45;2.10;;;1.50;;
79363;SDS011;68832;53.112;17.980;2024-02-23T14:08:15;3.70;;;1.80;;
79363;SDS011;68832;53.112;17.980;2024-02-23T14:10:42;6.00;;;1.20;;
79363;SDS011;68832;53.112;17.980;2024-02-23T14:13:09;2.30;;;0.80;;
79363;SDS011;68832;53.112;17.980;2024-02-23T14:15:36;4.30;;;1.00;;
79363;SDS011;68832;53.112;17.980;2024-02-23T14:18:03;5.00;;;3.40;;
79363;SDS011;68832;53.112;17.980;2024-02-23T14:20:31;5.40;;;2.20;;
79363;SDS011;68832;53.112;17.980;2024-02-23T14:22:59;8.30;;;4.10;;
79363;SDS011;68832;53.112;17.980;2024-02-23T14:25:28;3.60;;;3.00;;
79363;SDS011;68832;53.112;17.980;2024-02-23T14:27:55;5.60;;;2.60;;
79363;SDS011;68832;53.112;17.980;2024-02-23T14:30:22;2.90;;;1.10;;
79363;SDS011;68832;53.112;17.980;2024-02-23T14:32:49;3.70;;;1.40;;
79363;SDS011;68832;53.112;17.980;2024-02-23T14:35:18;3.30;;;1.70;;
79363;SDS011;68832;53.112;17.980;2024-02-23T14:37:44;2.50;;;0.70;;
79363;SDS011;68832;53.112;17.980;2024-02-23T14:40:11;3.00;;;0.80;;
79363;SDS011;68832;53.112;17.980;2024-02-23T14:42:41;5.00;;;0.70;;
79363;SDS011;68832;53.112;17.980;2024-02-23T14:45:08;3.10;;;1.40;;
79363;SDS011;68832;53.112;17.980;2024-02-23T14:47:42;2.20;;;1.00;;
79363;SDS011;68832;53.112;17.980;2024-02-23T14:50:12;3.10;;;1.40;;
79363;SDS011;68832;53.112;17.980;2024-02-23T14:52:39;3.60;;;0.90;;
79363;SDS011;68832;53.112;17.980;2024-02-23T14:55:08;3.70;;;1.70;;
79363;SDS011;68832;53.112;17.980;2024-02-23T14:57:37;4.60;;;1.70;;
79363;SDS011;68832;53.112;17.980;2024-02-23T15:00:06;3.70;;;1.80;;
79363;SDS011;68832;53.112;17.980;2024-02-23T15:02:34;4.90;;;1.10;;
79363;SDS011;68832;53.112;17.980;2024-02-23T15:05:03;4.10;;;2.00;;